sensor_id;sensor_type;location;lat;lon;timestamp;temperature;humidity
52275;DHT22;38228;50.940;4.024;2022-12-07T00:00:15;5.70;99.90
52275;DHT22;38228;50.940;4.024;2022-12-07T00:02:41;5.70;99.90
52275;DHT22;38228;50.940;4.024;2022-12-07T00:05:06;5.60;99.90
52275;DHT22;38228;50.940;4.024;2022-12-07T00:07:32;5.70;99.90
52275;DHT22;38228;50.940;4.024;2022-12-07T00:09:57;5.60;99.90
52275;DHT22;38228;50.940;4.024;2022-12-07T00:12:23;5.60;99.90
52275;DHT22;38228;50.940;4.024;2022-12-07T00:14:48;5.60;99.90
52275;DHT22;38228;50.940;4.024;2022-12-07T00:17:14;5.60;99.90
52275;DHT22;38228;50.940;4.024;2022-12-07T00:19:39;5.60;99.90
52275;DHT22;38228;50.940;4.024;2022-12-07T00:22:05;5.50;99.90
52275;DHT22;38228;50.940;4.024;2022-12-07T00:24:30;5.50;99.90
52275;DHT22;38228;50.940;4.024;2022-12-07T00:26:56;5.40;99.90
52275;DHT22;38228;50.940;4.024;2022-12-07T00:29:21;5.40;99.90
52275;DHT22;38228;50.940;4.024;2022-12-07T00:31:47;5.40;99.90
52275;DHT22;38228;50.940;4.024;2022-12-07T00:34:14;5.30;99.90
52275;DHT22;38228;50.940;4.024;2022-12-07T00:36:40;5.40;99.90
52275;DHT22;38228;50.940;4.024;2022-12-07T00:39:05;5.50;99.90
52275;DHT22;38228;50.940;4.024;2022-12-07T00:41:31;5.60;99.90
52275;DHT22;38228;50.940;4.024;2022-12-07T00:43:56;5.60;99.90
52275;DHT22;38228;50.940;4.024;2022-12-07T00:46:22;5.60;99.90
52275;DHT22;38228;50.940;4.024;2022-12-07T00:48:48;5.70;99.90
52275;DHT22;38228;50.940;4.024;2022-12-07T00:51:15;5.70;99.90
52275;DHT22;38228;50.940;4.024;2022-12-07T00:53:40;5.60;99.90
52275;DHT22;38228;50.940;4.024;2022-12-07T00:56:09;5.60;99.90
52275;DHT22;38228;50.940;4.024;2022-12-07T00:58:35;5.50;99.90
52275;DHT22;38228;50.940;4.024;2022-12-07T01:01:00;5.60;99.90
52275;DHT22;38228;50.940;4.024;2022-12-07T01:03:27;5.60;99.90
52275;DHT22;38228;50.940;4.024;2022-12-07T01:05:53;5.70;99.90
52275;DHT22;38228;50.940;4.024;2022-12-07T01:08:19;5.70;99.90
52275;DHT22;38228;50.940;4.024;2022-12-07T01:10:45;5.60;99.90
52275;DHT22;38228;50.940;4.024;2022-12-07T01:13:11;5.50;99.90
52275;DHT22;38228;50.940;4.024;2022-12-07T01:15:40;5.50;99.90
52275;DHT22;38228;50.940;4.024;2022-12-07T01:18:06;5.50;99.90
52275;DHT22;38228;50.940;4.024;2022-12-07T01:20:32;5.60;99.90
52275;DHT22;38228;50.940;4.024;2022-12-07T01:22:57;5.50;99.90
52275;DHT22;38228;50.940;4.024;2022-12-07T01:25:23;5.40;99.90
52275;DHT22;38228;50.940;4.024;2022-12-07T01:27:48;5.40;99.90
52275;DHT22;38228;50.940;4.024;2022-12-07T01:30:14;5.40;99.90
52275;DHT22;38228;50.940;4.024;2022-12-07T01:32:39;5.50;99.90
52275;DHT22;38228;50.940;4.024;2022-12-07T01:35:05;5.50;99.90
52275;DHT22;38228;50.940;4.024;2022-12-07T01:37:37;5.30;99.90
52275;DHT22;38228;50.940;4.024;2022-12-07T01:40:07;5.40;99.90
52275;DHT22;38228;50.940;4.024;2022-12-07T01:42:33;5.40;99.90
52275;DHT22;38228;50.940;4.024;2022-12-07T01:48:01;5.50;99.90
52275;DHT22;38228;50.940;4.024;2022-12-07T01:50:27;5.70;99.90
52275;DHT22;38228;50.940;4.024;2022-12-07T01:52:53;5.60;99.90
52275;DHT22;38228;50.940;4.024;2022-12-07T01:55:20;5.60;99.90
52275;DHT22;38228;50.940;4.024;2022-12-07T01:57:47;5.50;99.90
52275;DHT22;38228;50.940;4.024;2022-12-07T02:00:14;5.50;99.90
52275;DHT22;38228;50.940;4.024;2022-12-07T02:02:56;5.50;99.90
52275;DHT22;38228;50.940;4.024;2022-12-07T02:05:23;5.60;99.90
52275;DHT22;38228;50.940;4.024;2022-12-07T02:07:49;5.60;99.90
52275;DHT22;38228;50.940;4.024;2022-12-07T02:12:42;5.50;99.90
52275;DHT22;38228;50.940;4.024;2022-12-07T02:15:07;5.50;99.90
52275;DHT22;38228;50.940;4.024;2022-12-07T02:17:51;5.50;99.90
52275;DHT22;38228;50.940;4.024;2022-12-07T02:25:33;5.40;99.90
52275;DHT22;38228;50.940;4.024;2022-12-07T02:28:04;5.50;99.90
52275;DHT22;38228;50.940;4.024;2022-12-07T02:30:31;5.50;99.90
52275;DHT22;38228;50.940;4.024;2022-12-07T02:33:15;5.50;99.90
52275;DHT22;38228;50.940;4.024;2022-12-07T02:35:43;5.60;99.90
52275;DHT22;38228;50.940;4.024;2022-12-07T02:38:13;5.60;99.90
52275;DHT22;38228;50.940;4.024;2022-12-07T02:45:41;5.50;99.90
52275;DHT22;38228;50.940;4.024;2022-12-07T02:48:07;5.60;99.90
52275;DHT22;38228;50.940;4.024;2022-12-07T02:50:33;5.60;99.90
52275;DHT22;38228;50.940;4.024;2022-12-07T02:52:59;5.60;99.90
52275;DHT22;38228;50.940;4.024;2022-12-07T02:55:26;5.60;99.90
52275;DHT22;38228;50.940;4.024;2022-12-07T03:00:19;5.50;99.90
52275;DHT22;38228;50.940;4.024;2022-12-07T03:02:50;5.40;99.90
52275;DHT22;38228;50.940;4.024;2022-12-07T03:15:26;4.90;99.90
52275;DHT22;38228;50.940;4.024;2022-12-07T03:17:53;5.00;99.90
52275;DHT22;38228;50.940;4.024;2022-12-07T03:20:20;5.00;99.90
52275;DHT22;38228;50.940;4.024;2022-12-07T03:22:47;5.10;99.90
52275;DHT22;38228;50.940;4.024;2022-12-07T03:25:13;5.00;99.90
52275;DHT22;38228;50.940;4.024;2022-12-07T03:27:42;5.00;99.90
52275;DHT22;38228;50.940;4.024;2022-12-07T03:30:09;5.00;99.90
52275;DHT22;38228;50.940;4.024;2022-12-07T03:32:43;4.90;99.90
52275;DHT22;38228;50.940;4.024;2022-12-07T03:35:23;5.00;99.90
52275;DHT22;38228;50.940;4.024;2022-12-07T03:37:54;5.10;99.90
52275;DHT22;38228;50.940;4.024;2022-12-07T03:42:49;5.00;99.90
52275;DHT22;38228;50.940;4.024;2022-12-07T03:45:15;4.90;99.90
52275;DHT22;38228;50.940;4.024;2022-12-07T03:50:07;4.90;99.90
52275;DHT22;38228;50.940;4.024;2022-12-07T03:52:38;5.00;99.90
52275;DHT22;38228;50.940;4.024;2022-12-07T03:55:13;5.00;99.90
52275;DHT22;38228;50.940;4.024;2022-12-07T03:57:40;4.90;99.90
52275;DHT22;38228;50.940;4.024;2022-12-07T04:00:07;5.00;99.90
52275;DHT22;38228;50.940;4.024;2022-12-07T04:02:33;5.00;99.90
52275;DHT22;38228;50.940;4.024;2022-12-07T04:04:58;4.90;99.90
52275;DHT22;38228;50.940;4.024;2022-12-07T04:07:24;4.70;99.90
52275;DHT22;38228;50.940;4.024;2022-12-07T04:09:50;4.60;99.90
52275;DHT22;38228;50.940;4.024;2022-12-07T04:12:15;4.60;99.90
52275;DHT22;38228;50.940;4.024;2022-12-07T04:14:41;4.60;99.90
52275;DHT22;38228;50.940;4.024;2022-12-07T04:17:06;4.60;99.90
52275;DHT22;38228;50.940;4.024;2022-12-07T04:19:33;4.80;99.90
52275;DHT22;38228;50.940;4.024;2022-12-07T04:21:59;4.90;99.90
52275;DHT22;38228;50.940;4.024;2022-12-07T04:24:25;4.80;99.90
52275;DHT22;38228;50.940;4.024;2022-12-07T04:26:51;4.70;99.90
52275;DHT22;38228;50.940;4.024;2022-12-07T04:29:17;4.60;99.90
52275;DHT22;38228;50.940;4.024;2022-12-07T04:31:43;4.70;99.90
52275;DHT22;38228;50.940;4.024;2022-12-07T04:34:09;4.60;99.90
52275;DHT22;38228;50.940;4.024;2022-12-07T04:36:34;4.50;99.90
52275;DHT22;38228;50.940;4.024;2022-12-07T04:39:01;4.40;99.90
52275;DHT22;38228;50.940;4.024;2022-12-07T04:41:27;4.30;99.90
52275;DHT22;38228;50.940;4.024;2022-12-07T04:43:53;4.30;99.90
52275;DHT22;38228;50.940;4.024;2022-12-07T04:46:19;4.40;99.90
52275;DHT22;38228;50.940;4.024;2022-12-07T04:48:45;4.40;99.90
52275;DHT22;38228;50.940;4.024;2022-12-07T04:51:10;4.40;99.90
52275;DHT22;38228;50.940;4.024;2022-12-07T04:53:36;4.40;99.90
52275;DHT22;38228;50.940;4.024;2022-12-07T04:56:01;4.40;99.90
52275;DHT22;38228;50.940;4.024;2022-12-07T04:58:26;4.50;99.90
52275;DHT22;38228;50.940;4.024;2022-12-07T05:00:55;4.50;99.90
52275;DHT22;38228;50.940;4.024;2022-12-07T05:03:21;4.40;99.90
52275;DHT22;38228;50.940;4.024;2022-12-07T05:05:46;4.30;99.90
52275;DHT22;38228;50.940;4.024;2022-12-07T05:08:12;4.30;99.90
52275;DHT22;38228;50.940;4.024;2022-12-07T05:10:37;4.30;99.90
52275;DHT22;38228;50.940;4.024;2022-12-07T05:13:03;4.30;99.90
52275;DHT22;38228;50.940;4.024;2022-12-07T05:15:28;4.30;99.90
52275;DHT22;38228;50.940;4.024;2022-12-07T05:17:54;4.30;99.90
52275;DHT22;38228;50.940;4.024;2022-12-07T05:20:19;4.30;99.90
52275;DHT22;38228;50.940;4.024;2022-12-07T05:22:45;4.30;99.90
52275;DHT22;38228;50.940;4.024;2022-12-07T05:25:10;4.30;99.90
52275;DHT22;38228;50.940;4.024;2022-12-07T05:27:36;4.30;99.90
52275;DHT22;38228;50.940;4.024;2022-12-07T05:30:01;4.30;99.90
52275;DHT22;38228;50.940;4.024;2022-12-07T05:32:27;4.30;99.90
52275;DHT22;38228;50.940;4.024;2022-12-07T05:34:53;4.20;99.90
52275;DHT22;38228;50.940;4.024;2022-12-07T05:37:20;4.20;99.90
52275;DHT22;38228;50.940;4.024;2022-12-07T05:39:45;4.40;99.90
52275;DHT22;38228;50.940;4.024;2022-12-07T05:42:11;4.60;99.90
52275;DHT22;38228;50.940;4.024;2022-12-07T05:44:42;4.60;99.90
52275;DHT22;38228;50.940;4.024;2022-12-07T05:47:08;4.60;99.90
52275;DHT22;38228;50.940;4.024;2022-12-07T05:49:33;4.60;99.90
52275;DHT22;38228;50.940;4.024;2022-12-07T05:51:59;4.50;99.90
52275;DHT22;38228;50.940;4.024;2022-12-07T05:54:25;4.60;99.90
52275;DHT22;38228;50.940;4.024;2022-12-07T05:56:50;4.80;99.90
52275;DHT22;38228;50.940;4.024;2022-12-07T05:59:16;4.90;99.90
52275;DHT22;38228;50.940;4.024;2022-12-07T06:01:48;5.00;99.90
52275;DHT22;38228;50.940;4.024;2022-12-07T06:04:13;5.00;99.90
52275;DHT22;38228;50.940;4.024;2022-12-07T06:06:39;5.00;99.90
52275;DHT22;38228;50.940;4.024;2022-12-07T06:09:05;5.00;99.90
52275;DHT22;38228;50.940;4.024;2022-12-07T06:11:31;5.00;99.90
52275;DHT22;38228;50.940;4.024;2022-12-07T06:14:15;4.90;99.90
52275;DHT22;38228;50.940;4.024;2022-12-07T06:16:41;4.90;99.90
52275;DHT22;38228;50.940;4.024;2022-12-07T06:19:06;4.80;99.90
52275;DHT22;38228;50.940;4.024;2022-12-07T06:21:32;4.80;99.90
52275;DHT22;38228;50.940;4.024;2022-12-07T06:23:57;4.70;99.90
52275;DHT22;38228;50.940;4.024;2022-12-07T06:26:23;4.70;99.90
52275;DHT22;38228;50.940;4.024;2022-12-07T06:28:48;4.80;99.90
52275;DHT22;38228;50.940;4.024;2022-12-07T06:31:14;4.90;99.90
52275;DHT22;38228;50.940;4.024;2022-12-07T06:33:40;5.00;99.90
52275;DHT22;38228;50.940;4.024;2022-12-07T06:36:05;4.90;99.90
52275;DHT22;38228;50.940;4.024;2022-12-07T06:38:31;4.80;99.90
52275;DHT22;38228;50.940;4.024;2022-12-07T06:40:57;4.80;99.90
52275;DHT22;38228;50.940;4.024;2022-12-07T06:43:22;4.90;99.90
52275;DHT22;38228;50.940;4.024;2022-12-07T06:45:48;5.00;99.90
52275;DHT22;38228;50.940;4.024;2022-12-07T06:48:13;4.80;99.90
52275;DHT22;38228;50.940;4.024;2022-12-07T06:50:39;4.80;99.90
52275;DHT22;38228;50.940;4.024;2022-12-07T06:53:05;5.00;99.90
52275;DHT22;38228;50.940;4.024;2022-12-07T06:55:30;4.90;99.90
52275;DHT22;38228;50.940;4.024;2022-12-07T06:57:56;4.70;99.90
52275;DHT22;38228;50.940;4.024;2022-12-07T07:00:21;4.70;99.90
52275;DHT22;38228;50.940;4.024;2022-12-07T07:02:47;4.60;99.90
52275;DHT22;38228;50.940;4.024;2022-12-07T07:05:12;4.80;99.90
52275;DHT22;38228;50.940;4.024;2022-12-07T07:07:38;4.80;99.90
52275;DHT22;38228;50.940;4.024;2022-12-07T07:10:04;4.80;99.90
52275;DHT22;38228;50.940;4.024;2022-12-07T07:12:29;4.80;99.90
52275;DHT22;38228;50.940;4.024;2022-12-07T07:14:55;5.00;99.90
52275;DHT22;38228;50.940;4.024;2022-12-07T07:17:21;4.90;99.90
52275;DHT22;38228;50.940;4.024;2022-12-07T07:19:46;5.00;99.90
52275;DHT22;38228;50.940;4.024;2022-12-07T07:22:12;4.90;99.90
52275;DHT22;38228;50.940;4.024;2022-12-07T07:24:37;4.90;99.90
52275;DHT22;38228;50.940;4.024;2022-12-07T07:27:03;4.90;99.90
52275;DHT22;38228;50.940;4.024;2022-12-07T07:29:28;5.00;99.90
52275;DHT22;38228;50.940;4.024;2022-12-07T07:31:54;5.10;99.90
52275;DHT22;38228;50.940;4.024;2022-12-07T07:34:19;5.00;99.90
52275;DHT22;38228;50.940;4.024;2022-12-07T07:36:45;5.20;99.90
52275;DHT22;38228;50.940;4.024;2022-12-07T07:39:10;5.10;99.90
52275;DHT22;38228;50.940;4.024;2022-12-07T07:41:38;5.20;99.90
52275;DHT22;38228;50.940;4.024;2022-12-07T07:44:03;5.30;99.90
52275;DHT22;38228;50.940;4.024;2022-12-07T07:46:29;5.40;99.90
52275;DHT22;38228;50.940;4.024;2022-12-07T07:48:55;5.30;99.90
52275;DHT22;38228;50.940;4.024;2022-12-07T07:51:21;5.40;99.90
52275;DHT22;38228;50.940;4.024;2022-12-07T07:53:46;5.30;99.90
52275;DHT22;38228;50.940;4.024;2022-12-07T07:56:12;5.30;99.90
52275;DHT22;38228;50.940;4.024;2022-12-07T07:58:37;5.30;99.90
52275;DHT22;38228;50.940;4.024;2022-12-07T08:01:05;5.30;99.90
52275;DHT22;38228;50.940;4.024;2022-12-07T08:03:31;5.30;99.90
52275;DHT22;38228;50.940;4.024;2022-12-07T08:05:56;5.20;99.90
52275;DHT22;38228;50.940;4.024;2022-12-07T08:08:22;5.30;99.90
52275;DHT22;38228;50.940;4.024;2022-12-07T08:10:47;5.30;99.90
52275;DHT22;38228;50.940;4.024;2022-12-07T08:13:15;5.20;99.90
52275;DHT22;38228;50.940;4.024;2022-12-07T08:15:41;5.20;99.90
52275;DHT22;38228;50.940;4.024;2022-12-07T08:18:07;5.10;99.90
52275;DHT22;38228;50.940;4.024;2022-12-07T08:20:33;5.10;99.90
52275;DHT22;38228;50.940;4.024;2022-12-07T08:22:59;5.30;99.90
52275;DHT22;38228;50.940;4.024;2022-12-07T08:25:24;5.40;99.90
52275;DHT22;38228;50.940;4.024;2022-12-07T08:27:50;5.40;99.90
52275;DHT22;38228;50.940;4.024;2022-12-07T08:30:16;5.40;99.90
52275;DHT22;38228;50.940;4.024;2022-12-07T08:32:42;5.40;99.90
52275;DHT22;38228;50.940;4.024;2022-12-07T08:35:09;5.50;99.90
52275;DHT22;38228;50.940;4.024;2022-12-07T08:37:34;5.40;99.90
52275;DHT22;38228;50.940;4.024;2022-12-07T08:40:00;5.40;99.90
52275;DHT22;38228;50.940;4.024;2022-12-07T08:42:25;5.40;99.90
52275;DHT22;38228;50.940;4.024;2022-12-07T08:44:55;5.50;99.90
52275;DHT22;38228;50.940;4.024;2022-12-07T08:47:22;5.50;99.90
52275;DHT22;38228;50.940;4.024;2022-12-07T08:49:48;5.40;99.90
52275;DHT22;38228;50.940;4.024;2022-12-07T08:52:14;5.40;99.90
52275;DHT22;38228;50.940;4.024;2022-12-07T08:54:40;5.40;99.90
52275;DHT22;38228;50.940;4.024;2022-12-07T08:57:06;5.50;99.90
52275;DHT22;38228;50.940;4.024;2022-12-07T08:59:33;5.60;99.90
52275;DHT22;38228;50.940;4.024;2022-12-07T09:01:59;5.70;99.90
52275;DHT22;38228;50.940;4.024;2022-12-07T09:04:25;6.00;99.90
52275;DHT22;38228;50.940;4.024;2022-12-07T09:06:51;6.10;99.90
52275;DHT22;38228;50.940;4.024;2022-12-07T09:09:17;6.20;99.90
52275;DHT22;38228;50.940;4.024;2022-12-07T09:11:42;6.10;99.90
52275;DHT22;38228;50.940;4.024;2022-12-07T09:14:09;6.10;99.90
52275;DHT22;38228;50.940;4.024;2022-12-07T09:16:35;6.20;99.90
52275;DHT22;38228;50.940;4.024;2022-12-07T09:19:00;6.30;99.90
52275;DHT22;38228;50.940;4.024;2022-12-07T09:21:26;6.20;99.90
52275;DHT22;38228;50.940;4.024;2022-12-07T09:23:51;6.20;99.90
52275;DHT22;38228;50.940;4.024;2022-12-07T09:26:17;6.30;99.90
52275;DHT22;38228;50.940;4.024;2022-12-07T09:28:42;6.40;99.90
52275;DHT22;38228;50.940;4.024;2022-12-07T09:31:08;6.40;99.90
52275;DHT22;38228;50.940;4.024;2022-12-07T09:33:34;6.40;99.90
52275;DHT22;38228;50.940;4.024;2022-12-07T09:35:59;6.20;99.90
52275;DHT22;38228;50.940;4.024;2022-12-07T09:38:25;6.30;99.90
52275;DHT22;38228;50.940;4.024;2022-12-07T09:40:51;6.30;99.90
52275;DHT22;38228;50.940;4.024;2022-12-07T09:43:18;6.30;99.90
52275;DHT22;38228;50.940;4.024;2022-12-07T09:45:44;6.40;99.90
52275;DHT22;38228;50.940;4.024;2022-12-07T09:48:18;6.50;99.90
52275;DHT22;38228;50.940;4.024;2022-12-07T09:50:44;6.50;99.90
52275;DHT22;38228;50.940;4.024;2022-12-07T09:53:25;6.50;99.90
52275;DHT22;38228;50.940;4.024;2022-12-07T09:55:52;6.40;99.90
52275;DHT22;38228;50.940;4.024;2022-12-07T09:58:23;6.40;99.90
52275;DHT22;38228;50.940;4.024;2022-12-07T10:00:53;6.60;99.90
52275;DHT22;38228;50.940;4.024;2022-12-07T10:03:20;6.60;99.90
52275;DHT22;38228;50.940;4.024;2022-12-07T10:05:47;6.70;99.90
52275;DHT22;38228;50.940;4.024;2022-12-07T10:08:13;6.60;99.90
52275;DHT22;38228;50.940;4.024;2022-12-07T10:10:41;6.60;99.90
52275;DHT22;38228;50.940;4.024;2022-12-07T10:13:14;6.60;99.90
52275;DHT22;38228;50.940;4.024;2022-12-07T10:15:58;6.70;99.90
52275;DHT22;38228;50.940;4.024;2022-12-07T10:23:27;6.70;99.90
52275;DHT22;38228;50.940;4.024;2022-12-07T10:25:52;6.80;99.90
52275;DHT22;38228;50.940;4.024;2022-12-07T10:28:20;7.00;99.90
52275;DHT22;38228;50.940;4.024;2022-12-07T10:31:01;7.00;99.90
52275;DHT22;38228;50.940;4.024;2022-12-07T10:33:29;7.00;99.90
52275;DHT22;38228;50.940;4.024;2022-12-07T10:35:55;7.10;99.90
52275;DHT22;38228;50.940;4.024;2022-12-07T10:38:20;7.00;99.90
52275;DHT22;38228;50.940;4.024;2022-12-07T10:40:46;7.00;99.90
52275;DHT22;38228;50.940;4.024;2022-12-07T11:00:43;6.60;99.90
52275;DHT22;38228;50.940;4.024;2022-12-07T11:03:21;6.70;99.90
52275;DHT22;38228;50.940;4.024;2022-12-07T11:13:32;7.30;99.90
52275;DHT22;38228;50.940;4.024;2022-12-07T11:23:55;7.50;99.90
52275;DHT22;38228;50.940;4.024;2022-12-07T11:26:34;7.60;99.90
52275;DHT22;38228;50.940;4.024;2022-12-07T11:29:26;7.70;99.90
52275;DHT22;38228;50.940;4.024;2022-12-07T11:37:27;7.90;99.90
52275;DHT22;38228;50.940;4.024;2022-12-07T11:39:55;8.10;99.90
52275;DHT22;38228;50.940;4.024;2022-12-07T11:42:27;8.00;99.90
52275;DHT22;38228;50.940;4.024;2022-12-07T11:44:56;7.90;99.90
52275;DHT22;38228;50.940;4.024;2022-12-07T11:47:30;7.90;99.90
52275;DHT22;38228;50.940;4.024;2022-12-07T11:52:27;7.50;99.90
52275;DHT22;38228;50.940;4.024;2022-12-07T11:54:55;7.60;99.90
52275;DHT22;38228;50.940;4.024;2022-12-07T11:57:28;7.50;99.90
52275;DHT22;38228;50.940;4.024;2022-12-07T11:59:59;7.50;99.90
52275;DHT22;38228;50.940;4.024;2022-12-07T12:02:27;7.50;99.90
52275;DHT22;38228;50.940;4.024;2022-12-07T12:04:55;7.60;99.90
52275;DHT22;38228;50.940;4.024;2022-12-07T12:07:22;7.50;99.90
52275;DHT22;38228;50.940;4.024;2022-12-07T12:14:55;7.60;99.90
52275;DHT22;38228;50.940;4.024;2022-12-07T12:22:38;8.10;99.90
52275;DHT22;38228;50.940;4.024;2022-12-07T12:25:05;8.10;99.90
52275;DHT22;38228;50.940;4.024;2022-12-07T12:27:33;8.20;99.90
52275;DHT22;38228;50.940;4.024;2022-12-07T12:29:59;8.00;99.90
52275;DHT22;38228;50.940;4.024;2022-12-07T12:34:58;7.80;99.90
52275;DHT22;38228;50.940;4.024;2022-12-07T12:42:46;7.40;99.90
52275;DHT22;38228;50.940;4.024;2022-12-07T12:45:23;7.30;99.90
52275;DHT22;38228;50.940;4.024;2022-12-07T12:50:19;7.40;99.90
52275;DHT22;38228;50.940;4.024;2022-12-07T12:52:53;7.20;99.90
52275;DHT22;38228;50.940;4.024;2022-12-07T12:55:21;7.30;99.90
52275;DHT22;38228;50.940;4.024;2022-12-07T12:58:35;7.20;99.90
52275;DHT22;38228;50.940;4.024;2022-12-07T13:00:35;7.20;99.90
52275;DHT22;38228;50.940;4.024;2022-12-07T13:03:01;7.20;99.90
52275;DHT22;38228;50.940;4.024;2022-12-07T13:05:28;7.30;99.90
52275;DHT22;38228;50.940;4.024;2022-12-07T13:10:49;7.30;99.90
52275;DHT22;38228;50.940;4.024;2022-12-07T13:15:44;7.50;99.90
52275;DHT22;38228;50.940;4.024;2022-12-07T13:24:05;8.00;99.90
52275;DHT22;38228;50.940;4.024;2022-12-07T13:26:15;8.10;99.90
52275;DHT22;38228;50.940;4.024;2022-12-07T13:28:43;8.30;99.90
52275;DHT22;38228;50.940;4.024;2022-12-07T13:33:50;8.30;99.90
52275;DHT22;38228;50.940;4.024;2022-12-07T13:36:20;8.00;99.90
52275;DHT22;38228;50.940;4.024;2022-12-07T13:38:51;8.00;99.90
52275;DHT22;38228;50.940;4.024;2022-12-07T13:41:17;8.20;99.90
52275;DHT22;38228;50.940;4.024;2022-12-07T13:43:47;8.30;99.90
52275;DHT22;38228;50.940;4.024;2022-12-07T13:46:13;8.20;99.90
52275;DHT22;38228;50.940;4.024;2022-12-07T13:48:49;8.10;99.90
52275;DHT22;38228;50.940;4.024;2022-12-07T13:51:18;8.00;99.90
52275;DHT22;38228;50.940;4.024;2022-12-07T13:54:01;8.10;99.90
52275;DHT22;38228;50.940;4.024;2022-12-07T13:56:28;8.10;99.90
52275;DHT22;38228;50.940;4.024;2022-12-07T13:58:56;8.10;99.90
52275;DHT22;38228;50.940;4.024;2022-12-07T14:01:22;7.90;99.90
52275;DHT22;38228;50.940;4.024;2022-12-07T14:03:49;7.80;99.90
52275;DHT22;38228;50.940;4.024;2022-12-07T14:06:16;7.80;99.90
52275;DHT22;38228;50.940;4.024;2022-12-07T14:08:42;7.60;99.90
52275;DHT22;38228;50.940;4.024;2022-12-07T14:11:18;7.50;99.90
52275;DHT22;38228;50.940;4.024;2022-12-07T14:18:45;7.40;99.90
52275;DHT22;38228;50.940;4.024;2022-12-07T14:21:15;7.80;99.90
52275;DHT22;38228;50.940;4.024;2022-12-07T14:23:41;7.80;99.90
52275;DHT22;38228;50.940;4.024;2022-12-07T14:26:09;7.60;99.90
52275;DHT22;38228;50.940;4.024;2022-12-07T14:28:37;7.50;99.90
52275;DHT22;38228;50.940;4.024;2022-12-07T14:31:03;7.40;99.90
52275;DHT22;38228;50.940;4.024;2022-12-07T14:33:29;7.60;99.90
52275;DHT22;38228;50.940;4.024;2022-12-07T14:35:55;7.80;99.90
52275;DHT22;38228;50.940;4.024;2022-12-07T14:38:24;7.80;99.90
52275;DHT22;38228;50.940;4.024;2022-12-07T14:40:50;7.60;99.90
52275;DHT22;38228;50.940;4.024;2022-12-07T14:43:16;7.60;99.90
52275;DHT22;38228;50.940;4.024;2022-12-07T14:45:43;7.60;99.90
52275;DHT22;38228;50.940;4.024;2022-12-07T14:48:15;7.70;99.90
52275;DHT22;38228;50.940;4.024;2022-12-07T14:50:41;7.60;99.90
52275;DHT22;38228;50.940;4.024;2022-12-07T14:53:18;7.90;99.90
52275;DHT22;38228;50.940;4.024;2022-12-07T14:55:44;8.20;99.90
52275;DHT22;38228;50.940;4.024;2022-12-07T14:58:13;8.10;99.90
52275;DHT22;38228;50.940;4.024;2022-12-07T15:00:39;8.00;99.90
52275;DHT22;38228;50.940;4.024;2022-12-07T15:03:04;7.70;99.90
52275;DHT22;38228;50.940;4.024;2022-12-07T15:05:30;7.20;99.90
52275;DHT22;38228;50.940;4.024;2022-12-07T15:07:56;6.90;99.90
52275;DHT22;38228;50.940;4.024;2022-12-07T15:10:22;6.80;99.90
52275;DHT22;38228;50.940;4.024;2022-12-07T15:12:48;6.80;99.90
52275;DHT22;38228;50.940;4.024;2022-12-07T15:15:14;6.80;99.90
52275;DHT22;38228;50.940;4.024;2022-12-07T15:17:40;6.90;99.90
52275;DHT22;38228;50.940;4.024;2022-12-07T15:20:07;7.20;99.90
52275;DHT22;38228;50.940;4.024;2022-12-07T15:22:35;7.20;99.90
52275;DHT22;38228;50.940;4.024;2022-12-07T15:25:00;6.70;99.90
52275;DHT22;38228;50.940;4.024;2022-12-07T15:27:26;6.70;99.90
52275;DHT22;38228;50.940;4.024;2022-12-07T15:29:52;6.70;99.90
52275;DHT22;38228;50.940;4.024;2022-12-07T15:32:19;6.70;99.90
52275;DHT22;38228;50.940;4.024;2022-12-07T15:34:44;6.70;99.90
52275;DHT22;38228;50.940;4.024;2022-12-07T15:37:10;6.80;99.90
52275;DHT22;38228;50.940;4.024;2022-12-07T15:39:35;6.70;99.90
52275;DHT22;38228;50.940;4.024;2022-12-07T15:42:01;6.60;99.90
52275;DHT22;38228;50.940;4.024;2022-12-07T15:44:27;6.50;99.90
52275;DHT22;38228;50.940;4.024;2022-12-07T15:47:11;6.50;99.90
52275;DHT22;38228;50.940;4.024;2022-12-07T15:49:37;6.40;99.90
52275;DHT22;38228;50.940;4.024;2022-12-07T15:52:02;6.40;99.90
52275;DHT22;38228;50.940;4.024;2022-12-07T15:54:28;6.30;99.90
52275;DHT22;38228;50.940;4.024;2022-12-07T15:56:54;6.50;99.90
52275;DHT22;38228;50.940;4.024;2022-12-07T15:59:20;6.50;99.90
52275;DHT22;38228;50.940;4.024;2022-12-07T16:01:46;6.40;99.90
52275;DHT22;38228;50.940;4.024;2022-12-07T16:04:12;6.40;99.90
52275;DHT22;38228;50.940;4.024;2022-12-07T16:06:38;6.50;99.90
52275;DHT22;38228;50.940;4.024;2022-12-07T16:09:04;6.60;99.90
52275;DHT22;38228;50.940;4.024;2022-12-07T16:11:30;6.60;99.90
52275;DHT22;38228;50.940;4.024;2022-12-07T16:13:56;6.60;99.90
52275;DHT22;38228;50.940;4.024;2022-12-07T16:16:21;6.70;99.90
52275;DHT22;38228;50.940;4.024;2022-12-07T16:18:48;6.60;99.90
52275;DHT22;38228;50.940;4.024;2022-12-07T16:21:14;6.60;99.90
52275;DHT22;38228;50.940;4.024;2022-12-07T16:23:40;6.70;99.90
52275;DHT22;38228;50.940;4.024;2022-12-07T16:26:11;6.60;99.90
52275;DHT22;38228;50.940;4.024;2022-12-07T16:28:37;6.70;99.90
52275;DHT22;38228;50.940;4.024;2022-12-07T16:31:07;6.70;99.90
52275;DHT22;38228;50.940;4.024;2022-12-07T16:33:36;6.70;99.90
52275;DHT22;38228;50.940;4.024;2022-12-07T16:36:03;6.60;99.90
52275;DHT22;38228;50.940;4.024;2022-12-07T16:38:29;6.60;99.90
52275;DHT22;38228;50.940;4.024;2022-12-07T16:40:54;6.50;99.90
52275;DHT22;38228;50.940;4.024;2022-12-07T16:43:20;6.50;99.90
52275;DHT22;38228;50.940;4.024;2022-12-07T16:45:46;6.40;99.90
52275;DHT22;38228;50.940;4.024;2022-12-07T16:48:12;6.50;99.90
52275;DHT22;38228;50.940;4.024;2022-12-07T16:50:39;6.40;99.90
52275;DHT22;38228;50.940;4.024;2022-12-07T16:53:05;6.30;99.90
52275;DHT22;38228;50.940;4.024;2022-12-07T16:55:30;6.30;99.90
52275;DHT22;38228;50.940;4.024;2022-12-07T16:57:56;6.80;99.90
52275;DHT22;38228;50.940;4.024;2022-12-07T17:00:21;6.90;99.90
52275;DHT22;38228;50.940;4.024;2022-12-07T17:02:47;6.70;99.90
52275;DHT22;38228;50.940;4.024;2022-12-07T17:05:12;6.60;99.90
52275;DHT22;38228;50.940;4.024;2022-12-07T17:07:38;6.50;99.90
52275;DHT22;38228;50.940;4.024;2022-12-07T17:10:04;6.40;99.90
52275;DHT22;38228;50.940;4.024;2022-12-07T17:12:29;6.30;99.90
52275;DHT22;38228;50.940;4.024;2022-12-07T17:14:55;6.10;99.90
52275;DHT22;38228;50.940;4.024;2022-12-07T17:17:39;6.20;99.90
52275;DHT22;38228;50.940;4.024;2022-12-07T17:20:05;6.20;99.90
52275;DHT22;38228;50.940;4.024;2022-12-07T17:22:30;6.10;99.90
52275;DHT22;38228;50.940;4.024;2022-12-07T17:24:56;6.20;99.90
52275;DHT22;38228;50.940;4.024;2022-12-07T17:27:21;6.30;99.90
52275;DHT22;38228;50.940;4.024;2022-12-07T17:29:47;6.30;99.90
52275;DHT22;38228;50.940;4.024;2022-12-07T17:32:13;6.30;99.90
52275;DHT22;38228;50.940;4.024;2022-12-07T17:34:38;6.40;99.90
52275;DHT22;38228;50.940;4.024;2022-12-07T17:37:04;6.40;99.90
52275;DHT22;38228;50.940;4.024;2022-12-07T17:39:29;6.60;99.90
52275;DHT22;38228;50.940;4.024;2022-12-07T17:41:55;6.60;99.90